Time;durP1;ratioP1;P1;durP2;ratioP2;P2;SDS_P1;SDS_P2;PMS_P1;PMS_P2;Temp;Humidity;BMP_temperature;BMP_pressure;BME280_temperature;BME280_humidity;BME280_pressure;Samples;Min_cycle;Max_cycle;Signal;HPM_P1;HPM_P2
2023/09/27 00:00:17;;;;;;;12.88;9.40;;;17.40;90.20;;;;;;5058524;28;20025;-75
2023/09/27 00:02:43;;;;;;;12.90;9.38;;;17.30;90.20;;;;;;5058504;28;20021;-76
2023/09/27 00:05:11;;;;;;;16.48;10.38;;;17.30;90.40;;;;;;5058608;28;20079;-76
2023/09/27 00:07:38;;;;;;;14.48;10.45;;;17.30;90.40;;;;;;5041907;28;20040;-76
2023/09/27 00:10:05;;;;;;;14.45;9.27;;;17.30;90.50;;;;;;5075956;28;20096;-75
2023/09/27 00:12:33;;;;;;;14.25;9.57;;;17.30;90.50;;;;;;5075730;28;20028;-76
2023/09/27 00:15:01;;;;;;;13.90;9.52;;;17.30;90.50;;;;;;5041583;28;20025;-75
2023/09/27 00:17:28;;;;;;;11.82;9.45;;;17.20;90.40;;;;;;5075703;28;20021;-76
2023/09/27 00:19:54;;;;;;;13.60;9.25;;;17.20;90.40;;;;;;5058082;28;20032;-76
2023/09/27 00:22:19;;;;;;;15.55;9.52;;;17.20;90.50;;;;;;5075623;28;20025;-76
2023/09/27 00:24:45;;;;;;;13.32;9.93;;;17.10;90.50;;;;;;5041410;28;20101;-76
2023/09/27 00:27:11;;;;;;;13.27;9.23;;;17.10;90.60;;;;;;5057950;28;20033;-76
2023/09/27 00:29:36;;;;;;;12.77;8.98;;;17.20;90.60;;;;;;5057943;28;20036;-76
2023/09/27 00:32:02;;;;;;;13.73;10.18;;;17.20;90.50;;;;;;5041245;28;20029;-76
2023/09/27 00:34:28;;;;;;;12.85;8.98;;;17.20;90.50;;;;;;5075326;28;20050;-75
2023/09/27 00:36:54;;;;;;;14.32;9.63;;;17.20;90.50;;;;;;5057874;28;20057;-75
2023/09/27 00:39:20;;;;;;;13.95;9.90;;;17.10;90.40;;;;;;5075196;28;20084;-76
2023/09/27 00:41:45;;;;;;;13.82;9.73;;;17.10;90.40;;;;;;5075257;28;20118;-76
2023/09/27 00:44:11;;;;;;;14.85;9.45;;;17.00;90.40;;;;;;5057712;28;20033;-76
2023/09/27 00:46:37;;;;;;;18.80;10.57;;;17.00;90.50;;;;;;5041024;28;20032;-76
2023/09/27 00:49:04;;;;;;;15.07;10.45;;;17.00;90.60;;;;;;5057558;28;20072;-76
2023/09/27 00:51:30;;;;;;;14.82;9.85;;;17.00;90.60;;;;;;5041033;28;20025;-75
2023/09/27 00:53:56;;;;;;;14.93;10.25;;;17.00;90.70;;;;;;5074930;28;20044;-76
2023/09/27 00:56:23;;;;;;;14.52;10.73;;;16.90;90.70;;;;;;5040979;28;20028;-76
2023/09/27 00:58:48;;;;;;;15.02;10.05;;;17.00;90.80;;;;;;5074913;28;20088;-75
2023/09/27 01:01:15;;;;;;;13.55;9.80;;;16.90;90.70;;;;;;5057333;28;20032;-76
2023/09/27 01:03:40;;;;;;;12.93;9.57;;;16.80;90.70;;;;;;5057219;28;20025;-75
2023/09/27 01:06:07;;;;;;;15.05;10.85;;;16.80;90.80;;;;;;5074788;28;20029;-75
2023/09/27 01:08:33;;;;;;;16.48;10.43;;;16.90;90.80;;;;;;5057312;28;20515;-75
2023/09/27 01:10:59;;;;;;;15.18;9.80;;;16.90;90.80;;;;;;5057105;28;20035;-75
2023/09/27 01:13:25;;;;;;;13.10;9.98;;;16.90;90.70;;;;;;5057084;28;20063;-76
2023/09/27 01:15:51;;;;;;;16.17;10.10;;;16.90;90.60;;;;;;5040187;28;20496;-76
2023/09/27 01:18:16;;;;;;;12.38;8.85;;;16.90;90.60;;;;;;5074585;28;20033;-76
2023/09/27 01:20:42;;;;;;;15.20;10.13;;;16.80;90.50;;;;;;5056960;28;20048;-75
2023/09/27 01:23:08;;;;;;;15.00;10.38;;;16.60;90.50;;;;;;5056879;28;20114;-75
2023/09/27 01:25:37;;;;;;;13.77;10.18;;;16.50;90.70;;;;;;5056927;28;20044;-75
2023/09/27 01:28:10;;;;;;;11.98;9.52;;;16.60;90.80;;;;;;5040062;28;20037;-75
2023/09/27 01:30:37;;;;;;;16.85;10.75;;;16.60;90.90;;;;;;5074390;28;20559;-76
2023/09/27 01:33:10;;;;;;;17.17;10.32;;;16.50;90.90;;;;;;5040122;28;20032;-75
2023/09/27 01:35:38;;;;;;;15.40;10.35;;;16.50;91.00;;;;;;5056408;28;20029;-76
2023/09/27 01:38:06;;;;;;;17.05;10.80;;;16.50;91.10;;;;;;5074240;28;20043;-76
2023/09/27 01:40:32;;;;;;;15.35;11.63;;;16.60;91.10;;;;;;5056454;28;20021;-75
2023/09/27 01:42:59;;;;;;;15.50;10.52;;;16.60;91.10;;;;;;5074128;28;20032;-76
2023/09/27 01:45:25;;;;;;;16.38;11.10;;;16.60;91.00;;;;;;5056631;28;20048;-76
2023/09/27 01:47:51;;;;;;;17.30;11.40;;;16.60;91.00;;;;;;5039931;28;20029;-75
2023/09/27 01:50:19;;;;;;;14.13;10.52;;;16.60;90.80;;;;;;5074012;28;20025;-76
2023/09/27 01:52:46;;;;;;;15.65;11.35;;;16.50;90.90;;;;;;5056193;28;20036;-76
2023/09/27 01:55:12;;;;;;;17.60;11.68;;;16.40;91.10;;;;;;5039971;28;20055;-76
2023/09/27 01:57:37;;;;;;;15.48;11.43;;;16.50;91.10;;;;;;5073833;28;20045;-75
2023/09/27 02:00:08;;;;;;;17.88;11.55;;;16.50;91.20;;;;;;5056273;28;20025;-75
2023/09/27 02:02:34;;;;;;;17.88;11.70;;;16.50;91.20;;;;;;5055488;28;20025;-75
2023/09/27 02:04:59;;;;;;;17.90;12.05;;;16.50;91.20;;;;;;5056039;28;20033;-76
2023/09/27 02:07:25;;;;;;;16.83;10.98;;;16.50;91.30;;;;;;5055994;28;20056;-75
2023/09/27 02:09:51;;;;;;;16.80;11.35;;;16.50;91.30;;;;;;5039484;28;20029;-76
2023/09/27 02:12:16;;;;;;;16.13;11.20;;;16.50;91.20;;;;;;5039339;28;20037;-76
2023/09/27 02:14:42;;;;;;;14.38;10.98;;;16.50;91.20;;;;;;5055986;28;20029;-75
2023/09/27 02:17:07;;;;;;;17.85;9.98;;;16.50;91.10;;;;;;5056010;28;20029;-76
2023/09/27 02:19:34;;;;;;;14.40;9.40;;;16.50;91.00;;;;;;5039426;28;20025;-76
2023/09/27 02:22:00;;;;;;;15.40;10.10;;;16.50;90.90;;;;;;5055995;28;20064;-76
2023/09/27 02:24:27;;;;;;;19.02;11.27;;;16.50;90.80;;;;;;5055703;28;20021;-76
2023/09/27 02:26:53;;;;;;;16.17;11.38;;;16.50;91.20;;;;;;5056013;28;20040;-75
2023/09/27 02:29:20;;;;;;;15.68;11.25;;;16.40;90.90;;;;;;5055973;28;20080;-75
2023/09/27 02:31:45;;;;;;;15.35;11.02;;;16.50;91.00;;;;;;5055638;28;20551;-75
2023/09/27 02:34:12;;;;;;;16.90;11.25;;;16.50;91.00;;;;;;5073140;28;20029;-76
2023/09/27 02:36:42;;;;;;;16.48;11.15;;;16.40;91.00;;;;;;5039138;28;20029;-75
2023/09/27 02:39:10;;;;;;;17.58;11.38;;;16.40;91.00;;;;;;5055600;28;20059;-76
2023/09/27 02:41:35;;;;;;;18.42;11.07;;;16.40;91.00;;;;;;5039505;28;20037;-76
2023/09/27 02:44:01;;;;;;;15.90;11.40;;;16.40;91.00;;;;;;5039113;28;20056;-76
2023/09/27 02:46:27;;;;;;;16.80;11.18;;;16.30;91.10;;;;;;5038995;28;20488;-75
2023/09/27 02:48:52;;;;;;;14.18;11.07;;;16.30;91.00;;;;;;5055724;28;20036;-75
2023/09/27 02:51:18;;;;;;;16.48;10.85;;;16.30;91.10;;;;;;5039035;28;20033;-76
2023/09/27 02:53:44;;;;;;;14.48;10.48;;;16.20;91.10;;;;;;5055623;28;20085;-76
2023/09/27 02:56:11;;;;;;;15.02;10.70;;;16.20;91.20;;;;;;5055433;28;20040;-76
2023/09/27 02:58:37;;;;;;;15.60;10.35;;;16.20;91.10;;;;;;5055208;28;20045;-76
2023/09/27 03:01:04;;;;;;;16.52;10.75;;;16.10;91.10;;;;;;5038749;28;20021;-76
2023/09/27 03:03:30;;;;;;;15.57;10.07;;;16.10;91.30;;;;;;5038961;28;20045;-76
2023/09/27 03:05:57;;;;;;;16.17;10.98;;;16.00;91.40;;;;;;5055367;28;20051;-75
2023/09/27 03:08:26;;;;;;;16.80;10.35;;;16.10;91.30;;;;;;5055432;28;20028;-75
2023/09/27 03:10:52;;;;;;;15.77;9.73;;;16.00;91.20;;;;;;5055232;28;20033;-76
2023/09/27 03:13:18;;;;;;;14.48;10.10;;;15.90;91.10;;;;;;5055364;28;20025;-75
2023/09/27 03:15:54;;;;;;;14.25;9.98;;;16.00;91.10;;;;;;5059331;28;20032;-76
2023/09/27 03:18:19;;;;;;;15.05;10.75;;;15.90;91.10;;;;;;5060795;28;20025;-76
2023/09/27 03:20:46;;;;;;;15.70;10.32;;;15.80;91.10;;;;;;5059207;28;20048;-75
2023/09/27 03:23:11;;;;;;;13.48;9.73;;;15.70;91.30;;;;;;5059059;28;20036;-76
2023/09/27 03:25:37;;;;;;;15.05;10.48;;;15.60;91.40;;;;;;5059045;28;20025;-76
2023/09/27 03:28:03;;;;;;;14.60;10.93;;;15.60;91.50;;;;;;5042515;28;20056;-75
2023/09/27 03:30:29;;;;;;;15.77;10.88;;;15.70;91.50;;;;;;5059096;28;20060;-75
2023/09/27 03:32:54;;;;;;;15.10;10.25;;;15.70;91.90;;;;;;5042326;28;20029;-76
2023/09/27 03:35:20;;;;;;;13.93;9.70;;;15.80;91.60;;;;;;5042285;28;20030;-75
2023/09/27 03:37:46;;;;;;;13.68;10.20;;;15.80;91.50;;;;;;5059002;28;20039;-75
2023/09/27 03:40:15;;;;;;;14.73;10.18;;;15.90;91.40;;;;;;5076552;28;20028;-75
2023/09/27 03:42:45;;;;;;;16.75;10.27;;;15.80;91.40;;;;;;5058831;28;20036;-76
2023/09/27 03:45:12;;;;;;;14.18;9.45;;;15.80;91.50;;;;;;5058780;28;20124;-76
2023/09/27 03:47:38;;;;;;;16.27;10.48;;;15.80;91.40;;;;;;5076281;28;20048;-76
2023/09/27 03:50:05;;;;;;;14.30;9.93;;;15.80;91.30;;;;;;5058687;28;20025;-76
2023/09/27 03:52:30;;;;;;;13.35;10.18;;;15.80;91.30;;;;;;5058650;28;20055;-76
2023/09/27 03:54:56;;;;;;;14.88;10.07;;;15.90;91.40;;;;;;5058614;28;20025;-75
2023/09/27 03:57:21;;;;;;;16.23;10.68;;;15.90;91.30;;;;;;5075960;28;20127;-75
2023/09/27 03:59:48;;;;;;;13.88;10.13;;;15.80;91.40;;;;;;5058313;28;20096;-75
2023/09/27 04:02:14;;;;;;;13.45;10.02;;;15.80;91.40;;;;;;5042158;28;20052;-76
2023/09/27 04:04:40;;;;;;;14.25;9.82;;;15.80;91.50;;;;;;5075967;28;20029;-75
2023/09/27 04:07:05;;;;;;;15.43;10.48;;;15.80;91.50;;;;;;5058439;28;20043;-76
2023/09/27 04:09:32;;;;;;;16.45;11.13;;;15.70;91.50;;;;;;5058386;28;20055;-76
2023/09/27 04:11:57;;;;;;;16.83;11.02;;;15.70;91.50;;;;;;5058453;28;20021;-76
2023/09/27 04:14:23;;;;;;;15.55;11.48;;;15.80;91.50;;;;;;5058217;28;20033;-76
2023/09/27 04:16:48;;;;;;;16.52;10.63;;;15.70;91.50;;;;;;5041581;28;20036;-76
2023/09/27 04:19:14;;;;;;;16.58;10.18;;;15.70;91.60;;;;;;5058106;28;20029;-75
2023/09/27 04:21:40;;;;;;;15.85;10.07;;;15.70;91.50;;;;;;5041563;28;20033;-76
2023/09/27 04:24:06;;;;;;;13.50;9.80;;;15.70;91.50;;;;;;5041065;28;20029;-76
2023/09/27 04:26:32;;;;;;;14.63;9.77;;;15.70;91.50;;;;;;5041322;28;20492;-76
2023/09/27 04:28:59;;;;;;;13.40;10.20;;;15.60;91.50;;;;;;5041278;28;20028;-76
2023/09/27 04:31:25;;;;;;;15.30;9.88;;;15.60;91.20;;;;;;5075470;28;20017;-76
2023/09/27 04:33:51;;;;;;;15.10;9.75;;;15.50;91.30;;;;;;5041224;28;20055;-76
2023/09/27 04:36:17;;;;;;;13.25;10.20;;;15.50;91.40;;;;;;5041230;28;20175;-76
2023/09/27 04:38:44;;;;;;;9.93;7.18;;;15.50;91.30;;;;;;5041244;28;20033;-76
2023/09/27 04:41:11;;;;;;;7.07;6.10;;;15.40;91.20;;;;;;5075349;28;20052;-75
2023/09/27 04:43:36;;;;;;;13.98;7.15;;;15.30;91.40;;;;;;5057764;28;20044;-77
2023/09/27 04:46:02;;;;;;;8.40;6.30;;;15.30;91.40;;;;;;5057597;28;20405;-75
2023/09/27 04:48:29;;;;;;;8.45;6.65;;;15.20;91.50;;;;;;5057754;28;20025;-75
2023/09/27 04:50:57;;;;;;;11.00;8.55;;;15.10;91.40;;;;;;5075143;28;20021;-75
2023/09/27 04:53:23;;;;;;;10.88;8.27;;;14.90;91.70;;;;;;5075099;28;20088;-75
2023/09/27 04:55:49;;;;;;;9.27;7.38;;;14.90;92.00;;;;;;5075074;28;20047;-76
2023/09/27 04:58:14;;;;;;;10.32;8.10;;;15.00;92.00;;;;;;5040665;28;20140;-75
2023/09/27 05:00:40;;;;;;;10.45;8.00;;;15.00;91.90;;;;;;5057375;28;20025;-76
2023/09/27 05:03:07;;;;;;;12.77;8.88;;;15.10;91.80;;;;;;5057335;28;20053;-75
2023/09/27 05:05:32;;;;;;;11.88;8.85;;;15.10;91.80;;;;;;5057475;28;20045;-75
2023/09/27 05:07:58;;;;;;;11.23;8.38;;;15.20;91.80;;;;;;5040629;28;20029;-76
2023/09/27 05:10:24;;;;;;;11.10;8.07;;;15.20;91.60;;;;;;5057154;28;20033;-75
2023/09/27 05:12:49;;;;;;;15.23;10.23;;;15.20;92.10;;;;;;5057013;28;20037;-75
2023/09/27 05:15:16;;;;;;;13.40;9.77;;;15.20;91.80;;;;;;5040450;28;20029;-75
2023/09/27 05:17:41;;;;;;;13.90;9.60;;;15.10;91.90;;;;;;5040600;28;20021;-75
2023/09/27 05:20:10;;;;;;;14.15;9.85;;;15.10;92.10;;;;;;5074554;28;20078;-75
2023/09/27 05:22:37;;;;;;;14.93;9.77;;;15.20;92.10;;;;;;5040693;28;20091;-76
2023/09/27 05:25:05;;;;;;;13.35;9.93;;;15.20;92.10;;;;;;5040295;28;20019;-75
2023/09/27 05:27:30;;;;;;;13.55;9.95;;;15.20;91.80;;;;;;5040495;28;20025;-76
2023/09/27 05:29:57;;;;;;;15.73;10.13;;;15.10;91.70;;;;;;5074495;28;20044;-75
2023/09/27 05:32:23;;;;;;;14.13;10.38;;;15.10;91.90;;;;;;5056748;28;20021;-75
2023/09/27 05:34:50;;;;;;;13.00;9.40;;;15.10;92.00;;;;;;5056623;28;20026;-74
2023/09/27 05:37:16;;;;;;;11.55;8.98;;;15.00;92.00;;;;;;5039274;28;20021;-75
2023/09/27 05:39:42;;;;;;;12.63;9.38;;;15.00;92.00;;;;;;5056447;28;20063;-74
2023/09/27 05:42:08;;;;;;;12.52;9.30;;;15.00;92.00;;;;;;5056475;28;20021;-75
2023/09/27 05:44:33;;;;;;;14.18;9.88;;;15.10;92.00;;;;;;5056484;28;20055;-75
2023/09/27 05:46:59;;;;;;;14.43;10.50;;;15.10;91.90;;;;;;5074071;28;20033;-75
2023/09/27 05:49:25;;;;;;;15.57;11.02;;;15.10;92.10;;;;;;5073979;28;20025;-75
2023/09/27 05:51:55;;;;;;;14.75;10.82;;;15.10;92.50;;;;;;5056561;28;20022;-76
2023/09/27 05:54:21;;;;;;;16.88;11.68;;;15.10;92.10;;;;;;5040436;28;20029;-77
2023/09/27 05:56:51;;;;;;;16.30;11.55;;;15.20;92.10;;;;;;5073694;28;20048;-77
2023/09/27 05:59:17;;;;;;;15.77;10.88;;;15.00;92.30;;;;;;5056206;28;20021;-77
2023/09/27 06:01:43;;;;;;;18.40;11.60;;;15.00;92.50;;;;;;5056111;28;20051;-77
2023/09/27 06:04:10;;;;;;;21.27;12.07;;;15.00;92.50;;;;;;5056030;28;20045;-77
2023/09/27 06:06:36;;;;;;;17.25;12.30;;;15.10;92.60;;;;;;5056349;28;20025;-77
2023/09/27 06:09:05;;;;;;;16.67;11.50;;;15.10;92.60;;;;;;5073633;28;20025;-77
2023/09/27 06:11:32;;;;;;;13.40;10.07;;;15.00;92.60;;;;;;5055983;28;20051;-77
2023/09/27 06:13:58;;;;;;;15.82;11.10;;;15.00;92.50;;;;;;5055870;28;20033;-75
2023/09/27 06:16:24;;;;;;;15.30;10.95;;;15.00;92.50;;;;;;5073545;28;20028;-75
2023/09/27 06:18:50;;;;;;;16.05;10.10;;;15.00;92.70;;;;;;5073472;28;20029;-75
2023/09/27 06:21:16;;;;;;;15.32;10.18;;;15.00;92.70;;;;;;5056046;28;20041;-76
2023/09/27 06:23:42;;;;;;;15.55;10.90;;;15.10;92.60;;;;;;5022972;28;20032;-75
2023/09/27 06:26:08;;;;;;;17.20;11.18;;;15.10;92.50;;;;;;5055589;28;20120;-76
2023/09/27 06:28:37;;;;;;;17.65;12.38;;;15.10;92.40;;;;;;5073460;28;20047;-75
2023/09/27 06:31:06;;;;;;;17.10;12.48;;;15.10;92.90;;;;;;5073139;28;20022;-75
2023/09/27 06:33:38;;;;;;;18.17;12.65;;;15.10;92.80;;;;;;5073131;28;20028;-76
2023/09/27 06:36:05;;;;;;;19.38;13.35;;;15.10;92.90;;;;;;5040298;28;20021;-75
2023/09/27 06:38:31;;;;;;;21.98;14.20;;;15.10;93.00;;;;;;5055744;28;20051;-75
2023/09/27 06:41:03;;;;;;;20.30;13.82;;;15.10;93.30;;;;;;5039131;28;20029;-76
2023/09/27 06:43:31;;;;;;;21.45;14.32;;;15.10;93.40;;;;;;5055609;28;20017;-75
2023/09/27 06:45:58;;;;;;;21.77;15.10;;;15.20;93.50;;;;;;5055407;28;20017;-75
2023/09/27 06:48:24;;;;;;;25.38;17.45;;;15.30;93.60;;;;;;5055143;28;20033;-74
2023/09/27 06:50:50;;;;;;;25.10;17.10;;;15.30;93.70;;;;;;5039005;28;20043;-74
2023/09/27 06:53:16;;;;;;;28.27;18.60;;;15.30;93.90;;;;;;5055335;28;20036;-74
2023/09/27 06:55:45;;;;;;;29.88;18.52;;;15.40;94.10;;;;;;5039223;28;20024;-74
2023/09/27 06:58:13;;;;;;;32.30;21.45;;;15.40;94.20;;;;;;5072856;28;20048;-74
2023/09/27 07:00:42;;;;;;;28.42;21.00;;;15.40;94.40;;;;;;5073049;28;20025;-78
2023/09/27 07:03:24;;;;;;;35.60;22.83;;;15.50;94.60;;;;;;5055732;28;20032;-77
2023/09/27 07:05:54;;;;;;;32.42;22.95;;;15.50;94.80;;;;;;5040750;28;20037;-75
2023/09/27 07:08:26;;;;;;;30.65;21.23;;;15.60;94.90;;;;;;5055415;28;20021;-79
2023/09/27 07:11:10;;;;;;;32.40;20.73;;;15.60;94.90;;;;;;5055461;28;20048;-79
2023/09/27 07:13:39;;;;;;;29.98;19.95;;;15.70;94.80;;;;;;5055099;28;20029;-80
2023/09/27 07:16:26;;;;;;;31.48;20.05;;;15.80;95.00;;;;;;5039287;28;20029;-78
2023/09/27 07:19:00;;;;;;;26.25;17.13;;;15.80;94.90;;;;;;5055219;28;20017;-79
2023/09/27 07:21:29;;;;;;;26.75;19.15;;;15.80;95.00;;;;;;5055303;28;20025;-81
2023/09/27 07:23:55;;;;;;;27.80;19.10;;;15.90;95.00;;;;;;5038993;28;20060;-81
2023/09/27 07:26:20;;;;;;;24.30;17.58;;;16.00;95.20;;;;;;5055266;28;20033;-82
2023/09/27 07:28:46;;;;;;;23.05;16.70;;;16.00;95.10;;;;;;5055005;28;20060;-81
2023/09/27 07:31:16;;;;;;;24.83;16.90;;;16.10;95.50;;;;;;5055178;28;20024;-81
2023/09/27 07:33:44;;;;;;;26.40;16.75;;;16.10;95.00;;;;;;5055019;28;20088;-80
2023/09/27 07:36:10;;;;;;;29.88;16.55;;;16.20;95.00;;;;;;5072664;28;20017;-81
2023/09/27 07:38:39;;;;;;;26.58;16.75;;;16.30;94.90;;;;;;5054954;28;20029;-79
2023/09/27 07:44:32;;;;;;;24.37;15.77;;;16.40;94.70;;;;;;5072669;28;20106;-78
2023/09/27 07:46:58;;;;;;;24.02;16.65;;;16.40;94.70;;;;;;5072560;28;20017;-78
2023/09/27 07:49:23;;;;;;;26.13;16.58;;;16.40;94.70;;;;;;5054945;28;20032;-78
2023/09/27 07:51:49;;;;;;;24.02;16.55;;;16.50;94.80;;;;;;5054988;28;20100;-80
2023/09/27 07:54:15;;;;;;;35.45;21.23;;;16.50;94.80;;;;;;5055127;28;20058;-79
2023/09/27 07:56:41;;;;;;;28.80;19.02;;;16.50;94.90;;;;;;5072313;28;20048;-78
2023/09/27 07:59:07;;;;;;;48.83;32.42;;;16.60;95.10;;;;;;5038380;28;20017;-76
2023/09/27 08:01:33;;;;;;;30.75;20.40;;;16.60;95.10;;;;;;5058332;28;20029;-78
2023/09/27 08:04:12;;;;;;;26.98;19.23;;;16.70;95.20;;;;;;5076035;28;20079;-78
2023/09/27 08:06:38;;;;;;;30.00;19.23;;;16.80;95.30;;;;;;5075817;28;20057;-79
2023/09/27 08:09:08;;;;;;;25.98;18.63;;;16.80;95.20;;;;;;5075438;28;20025;-79
2023/09/27 08:11:33;;;;;;;27.45;19.10;;;16.90;95.20;;;;;;5075914;28;20085;-79
2023/09/27 08:13:59;;;;;;;27.05;19.73;;;16.90;95.20;;;;;;5058243;28;20055;-79
2023/09/27 08:16:26;;;;;;;25.77;19.00;;;17.00;95.30;;;;;;5041680;28;20029;-78
2023/09/27 08:18:52;;;;;;;25.42;18.42;;;17.10;95.20;;;;;;5041663;28;20017;-79
2023/09/27 08:21:18;;;;;;;24.85;17.15;;;17.20;95.20;;;;;;5075713;28;20021;-79
2023/09/27 08:23:44;;;;;;;25.17;18.20;;;17.20;95.00;;;;;;5041652;28;20028;-79
2023/09/27 08:26:13;;;;;;;27.33;18.98;;;17.20;95.20;;;;;;5057984;28;20033;-79
2023/09/27 08:28:39;;;;;;;25.42;18.42;;;17.30;95.30;;;;;;5075539;28;20025;-79
2023/09/27 08:31:05;;;;;;;25.38;17.75;;;17.40;95.00;;;;;;5057815;28;20045;-78
2023/09/27 08:33:31;;;;;;;28.30;18.60;;;17.50;94.90;;;;;;5041164;28;20092;-79
2023/09/27 08:36:00;;;;;;;24.85;18.35;;;17.60;94.70;;;;;;5058068;28;20032;-80
2023/09/27 08:38:26;;;;;;;26.70;18.58;;;17.70;94.60;;;;;;5057863;28;20026;-80
2023/09/27 08:40:52;;;;;;;23.35;18.58;;;17.70;94.40;;;;;;5075356;28;20048;-79
2023/09/27 08:43:22;;;;;;;23.40;17.58;;;17.80;94.50;;;;;;5075560;28;20098;-80
2023/09/27 08:45:51;;;;;;;26.42;18.83;;;17.80;94.20;;;;;;5075379;28;20089;-79
2023/09/27 08:48:20;;;;;;;25.48;17.98;;;17.90;94.40;;;;;;5057514;28;20051;-79
2023/09/27 08:50:48;;;;;;;22.52;17.15;;;18.00;94.30;;;;;;5057969;28;20049;-78
2023/09/27 08:53:14;;;;;;;375.27;199.50;;;18.10;93.90;;;;;;5041102;28;20096;-80
2023/09/27 08:55:48;;;;;;;39.58;25.90;;;18.20;93.90;;;;;;5057453;28;20032;-79
2023/09/27 08:58:15;;;;;;;19.70;13.77;;;18.30;93.30;;;;;;5074863;28;20132;-80
2023/09/27 09:00:42;;;;;;;19.88;13.52;;;18.40;93.10;;;;;;5040955;28;20021;-78
2023/09/27 09:03:08;;;;;;;17.70;13.57;;;18.60;93.10;;;;;;5057457;28;20029;-80
2023/09/27 09:05:35;;;;;;;19.38;13.90;;;18.70;93.00;;;;;;5057195;28;20048;-80
2023/09/27 09:08:04;;;;;;;17.52;13.38;;;18.80;92.90;;;;;;5057239;28;20478;-80
2023/09/27 09:10:29;;;;;;;15.60;11.18;;;18.90;92.80;;;;;;5056944;28;20032;-79
2023/09/27 09:12:59;;;;;;;15.95;11.50;;;18.90;92.30;;;;;;5074619;28;20033;-79
2023/09/27 09:15:29;;;;;;;15.43;10.80;;;19.00;92.20;;;;;;5074722;28;20084;-79
2023/09/27 09:17:57;;;;;;;17.55;11.63;;;19.10;92.00;;;;;;5056843;28;20088;-80
2023/09/27 09:24:27;;;;;;;20.27;12.27;;;19.20;91.80;;;;;;5014114;28;20073;-76
2023/09/27 09:27:09;;;;;;;15.18;11.50;;;19.40;92.20;;;;;;4997494;28;20089;-77
2023/09/27 09:29:47;;;;;;;16.60;12.05;;;19.60;92.10;;;;;;5012767;28;20038;-77
2023/09/27 09:32:15;;;;;;;16.77;12.23;;;19.70;92.10;;;;;;4996663;28;20030;-76
2023/09/27 09:34:43;;;;;;;13.90;11.00;;;19.90;91.90;;;;;;5050666;28;20037;-76
2023/09/27 09:37:23;;;;;;;17.30;11.77;;;20.00;91.70;;;;;;5056577;28;20021;-77
2023/09/27 09:40:05;;;;;;;15.52;10.98;;;20.10;91.40;;;;;;5056498;28;20029;-77
2023/09/27 09:42:37;;;;;;;15.00;11.27;;;20.10;91.20;;;;;;5056434;28;20044;-77
2023/09/27 09:45:06;;;;;;;16.23;11.98;;;20.10;90.60;;;;;;5039142;28;20112;-77
2023/09/27 09:47:36;;;;;;;18.35;11.82;;;20.00;90.20;;;;;;5074187;28;20073;-77
2023/09/27 09:50:08;;;;;;;18.80;14.02;;;19.90;90.10;;;;;;5056508;28;20032;-78
2023/09/27 09:52:50;;;;;;;;;;;19.90;90.60;;;;;;5056282;28;20033;-77
2023/09/27 09:55:35;;;;;;;18.92;13.30;;;19.90;90.60;;;;;;5074226;28;19927;-79
2023/09/27 09:58:10;;;;;;;20.13;14.50;;;19.90;91.00;;;;;;5072921;28;20522;-79
2023/09/27 10:00:41;;;;;;;21.17;14.25;;;20.00;91.00;;;;;;5073656;28;20052;-79
2023/09/27 10:03:09;;;;;;;20.95;14.27;;;20.00;90.60;;;;;;5056215;28;20044;-79
2023/09/27 10:05:39;;;;;;;19.50;13.65;;;20.00;90.60;;;;;;5073142;28;20025;-79
2023/09/27 10:08:05;;;;;;;23.15;16.08;;;20.00;90.70;;;;;;5056021;28;20032;-79
2023/09/27 10:10:32;;;;;;;23.08;16.65;;;20.00;91.00;;;;;;5073653;28;20020;-79
2023/09/27 10:12:59;;;;;;;21.33;15.60;;;20.10;91.10;;;;;;5056420;28;20025;-78
2023/09/27 10:15:26;;;;;;;22.25;16.75;;;20.20;90.80;;;;;;5056018;28;20034;-79
2023/09/27 10:17:52;;;;;;;24.55;17.42;;;20.30;90.50;;;;;;5056289;28;20021;-79
2023/09/27 10:20:22;;;;;;;21.13;16.77;;;20.40;90.30;;;;;;5073648;28;20021;-79
2023/09/27 10:22:48;;;;;;;19.50;14.90;;;20.50;90.00;;;;;;5073224;28;20024;-79
2023/09/27 10:25:23;;;;;;;22.90;14.32;;;20.60;90.10;;;;;;5039502;28;20053;-80
2023/09/27 10:28:01;;;;;;;17.40;13.07;;;20.70;89.10;;;;;;5055759;28;20055;-79
2023/09/27 10:30:48;;;;;;;17.70;13.32;;;20.90;89.40;;;;;;5055725;28;20124;-80
2023/09/27 10:33:16;;;;;;;17.80;13.23;;;21.00;89.90;;;;;;5055672;28;20052;-78
2023/09/27 10:35:43;;;;;;;15.93;12.15;;;21.10;89.30;;;;;;5073271;28;20031;-79
2023/09/27 10:38:10;;;;;;;16.80;12.07;;;21.10;88.60;;;;;;5055590;28;20024;-78
2023/09/27 10:40:46;;;;;;;16.77;11.57;;;21.20;88.80;;;;;;5055782;28;20028;-79
2023/09/27 10:43:34;;;;;;;16.50;11.45;;;21.30;88.40;;;;;;5039102;28;20021;-79
2023/09/27 10:46:04;;;;;;;15.13;11.73;;;21.40;88.60;;;;;;5073180;28;20039;-79
2023/09/27 10:48:37;;;;;;;17.45;11.63;;;21.50;88.60;;;;;;5056207;28;20040;-78
2023/09/27 10:51:03;;;;;;;17.42;11.40;;;21.70;88.40;;;;;;5073333;28;20025;-79
2023/09/27 10:53:32;;;;;;;14.70;10.57;;;21.80;88.40;;;;;;5073067;28;20048;-79
2023/09/27 10:55:58;;;;;;;15.70;11.15;;;21.90;87.80;;;;;;5055397;28;20032;-79
2023/09/27 10:58:23;;;;;;;15.45;11.38;;;22.00;86.30;;;;;;5072923;28;20041;-79
2023/09/27 11:00:53;;;;;;;15.38;11.10;;;21.90;84.90;;;;;;5055522;28;20041;-80
2023/09/27 11:03:19;;;;;;;15.43;10.95;;;21.90;84.40;;;;;;5039131;28;20021;-80
2023/09/27 11:05:45;;;;;;;16.52;10.50;;;21.90;85.00;;;;;;5072980;28;20045;-80
2023/09/27 11:08:12;;;;;;;15.68;11.15;;;21.90;85.70;;;;;;5055327;28;20029;-81
2023/09/27 11:10:52;;;;;;;15.27;10.93;;;22.00;85.50;;;;;;5039045;28;20048;-81
2023/09/27 11:13:19;;;;;;;17.00;11.35;;;22.00;83.90;;;;;;5073079;28;20025;-79
2023/09/27 11:15:45;;;;;;;13.93;10.55;;;22.00;84.00;;;;;;5055254;28;20024;-80
2023/09/27 11:18:11;;;;;;;15.65;10.38;;;22.00;84.40;;;;;;5072899;28;20067;-80
2023/09/27 11:20:39;;;;;;;16.48;10.07;;;22.00;84.10;;;;;;5055541;28;20021;-80
2023/09/27 11:23:05;;;;;;;12.68;9.55;;;22.00;82.00;;;;;;5055042;28;20057;-79
2023/09/27 11:25:33;;;;;;;12.90;8.60;;;22.00;82.80;;;;;;5055228;28;20029;-80
2023/09/27 11:27:59;;;;;;;11.70;8.25;;;22.00;83.30;;;;;;5072814;28;20088;-80
2023/09/27 11:30:26;;;;;;;11.95;8.13;;;22.00;82.70;;;;;;5055074;28;20027;-79
2023/09/27 11:32:52;;;;;;;11.43;8.02;;;21.90;82.60;;;;;;5072647;28;20084;-79
2023/09/27 11:35:20;;;;;;;11.52;8.55;;;22.00;83.90;;;;;;5056825;28;20104;-81
2023/09/27 11:37:47;;;;;;;13.15;8.52;;;22.00;84.40;;;;;;5059173;28;20031;-81
2023/09/27 11:40:13;;;;;;;14.07;9.02;;;22.00;83.30;;;;;;5059341;28;20084;-81
2023/09/27 11:42:39;;;;;;;15.45;8.90;;;21.90;83.20;;;;;;5058929;28;20024;-81
2023/09/27 11:45:08;;;;;;;10.68;8.70;;;21.90;83.80;;;;;;5076434;28;20025;-81
2023/09/27 11:47:52;;;;;;;11.52;8.25;;;21.90;83.60;;;;;;5058774;28;20029;-82
2023/09/27 11:50:20;;;;;;;14.75;7.97;;;21.90;83.90;;;;;;5058981;28;20021;-82
2023/09/27 11:52:46;;;;;;;11.73;8.30;;;21.90;84.70;;;;;;5076219;28;20043;-81
2023/09/27 11:55:16;;;;;;;15.30;9.23;;;22.00;85.00;;;;;;5058698;28;20064;-82
2023/09/27 11:57:42;;;;;;;14.65;9.43;;;22.10;85.10;;;;;;5042103;28;20045;-81
2023/09/27 12:00:13;;;;;;;17.35;10.38;;;22.20;85.60;;;;;;5042047;28;20052;-81
2023/09/27 12:02:38;;;;;;;12.23;9.43;;;22.40;85.10;;;;;;5059179;28;20084;-80
2023/09/27 12:05:04;;;;;;;10.50;8.25;;;22.50;85.00;;;;;;5076084;28;20442;-80
2023/09/27 12:07:31;;;;;;;12.07;9.32;;;22.60;84.80;;;;;;5041937;28;20033;-80
2023/09/27 12:09:57;;;;;;;12.40;8.82;;;22.60;82.60;;;;;;5058255;28;20048;-80
2023/09/27 12:12:23;;;;;;;13.25;9.05;;;22.70;83.30;;;;;;5075886;28;20054;-80
2023/09/27 12:14:51;;;;;;;13.05;8.82;;;22.70;82.10;;;;;;5041397;28;20029;-82
2023/09/27 12:17:17;;;;;;;12.02;7.68;;;22.70;81.70;;;;;;5042088;28;20039;-80
2023/09/27 12:19:43;;;;;;;12.25;8.85;;;22.70;81.50;;;;;;5058199;28;20048;-81
2023/09/27 12:22:11;;;;;;;13.60;7.85;;;22.80;80.40;;;;;;5041949;28;20017;-79
2023/09/27 12:24:36;;;;;;;8.75;6.90;;;22.90;80.50;;;;;;5041911;28;20045;-82
2023/09/27 12:27:02;;;;;;;10.15;7.03;;;22.90;81.10;;;;;;5058213;28;20029;-82
2023/09/27 12:29:29;;;;;;;11.30;7.38;;;22.90;81.00;;;;;;5041555;28;20427;-82
2023/09/27 12:31:54;;;;;;;10.20;7.15;;;22.90;79.60;;;;;;5041551;28;20488;-82
2023/09/27 12:34:20;;;;;;;10.40;7.22;;;22.90;80.50;;;;;;5057957;28;20037;-82
2023/09/27 12:36:47;;;;;;;11.77;7.47;;;22.90;80.00;;;;;;5041330;28;20063;-82
2023/09/27 12:39:13;;;;;;;10.88;7.32;;;22.90;80.00;;;;;;5041702;28;20024;-83